createdAt,value
2019-03-09T00:01:02.257Z,89.50
2019-03-09T00:03:31.875Z,90.20
2019-03-09T00:06:01.462Z,90.60
2019-03-09T00:08:31.081Z,90.50
2019-03-09T00:11:00.743Z,90.80
2019-03-09T00:13:30.384Z,90.70
2019-03-09T00:16:00.007Z,90.50
2019-03-09T00:18:29.588Z,90.70
2019-03-09T00:20:59.214Z,90.80
2019-03-09T00:23:37.466Z,90.80
2019-03-09T00:26:08.721Z,90.60
2019-03-09T00:28:56.237Z,90.00
2019-03-09T00:31:28.419Z,89.30
2019-03-09T00:33:58.010Z,89.80
2019-03-09T00:36:28.203Z,90.20
2019-03-09T00:38:57.888Z,90.40
2019-03-09T00:41:27.745Z,90.40
2019-03-09T00:43:57.338Z,90.30
2019-03-09T00:46:26.957Z,90.20
2019-03-09T00:48:56.549Z,90.30
2019-03-09T00:51:26.157Z,90.30
2019-03-09T00:53:55.925Z,90.30
2019-03-09T00:56:25.551Z,90.50
2019-03-09T00:58:55.139Z,90.70
2019-03-09T01:01:24.818Z,90.80
2019-03-09T01:03:54.477Z,91.10
2019-03-09T01:06:24.262Z,90.90
2019-03-09T01:08:53.879Z,90.70
2019-03-09T01:11:23.532Z,90.30
2019-03-09T01:13:53.149Z,90.70
2019-03-09T01:16:22.812Z,91.10
2019-03-09T01:18:52.420Z,91.10
2019-03-09T01:21:22.035Z,90.90
2019-03-09T01:23:51.616Z,90.50
2019-03-09T01:26:21.238Z,90.70
2019-03-09T01:28:50.825Z,90.50
2019-03-09T01:31:20.414Z,90.50
2019-03-09T01:33:50.029Z,90.00
2019-03-09T01:36:19.688Z,87.90
2019-03-09T01:38:49.366Z,88.30
2019-03-09T01:41:19.107Z,90.20
2019-03-09T01:43:48.691Z,90.60
2019-03-09T01:46:18.374Z,88.20
2019-03-09T01:48:47.959Z,88.00
2019-03-09T01:51:17.728Z,89.00
2019-03-09T01:53:47.313Z,90.40
2019-03-09T01:56:16.898Z,90.70
2019-03-09T01:58:46.529Z,91.40
2019-03-09T02:01:16.104Z,89.70
2019-03-09T02:03:45.785Z,88.90
2019-03-09T02:06:15.375Z,88.40
2019-03-09T02:08:45.067Z,87.00
2019-03-09T02:11:14.884Z,87.20
2019-03-09T02:13:44.537Z,87.80
2019-03-09T02:16:14.151Z,88.80
2019-03-09T02:18:43.738Z,90.00
2019-03-09T02:21:13.340Z,90.30
2019-03-09T02:23:42.924Z,90.90
2019-03-09T02:26:12.549Z,91.40
2019-03-09T02:28:42.129Z,91.60
2019-03-09T02:31:11.750Z,91.70
2019-03-09T02:33:41.398Z,91.40
2019-03-09T02:36:11.072Z,90.30
2019-03-09T02:38:42.327Z,90.20
2019-03-09T02:41:11.951Z,90.30
2019-03-09T02:43:41.551Z,90.20
2019-03-09T02:46:11.211Z,90.30
2019-03-09T02:48:40.840Z,90.50
2019-03-09T02:51:10.417Z,90.20
2019-03-09T02:53:40.023Z,89.90
2019-03-09T02:56:09.656Z,90.20
2019-03-09T02:58:39.238Z,89.10
2019-03-09T03:01:22.620Z,89.70
2019-03-09T03:03:52.220Z,90.40
2019-03-09T03:06:21.803Z,89.70
2019-03-09T03:08:51.429Z,88.80
2019-03-09T03:11:21.021Z,88.60
2019-03-09T03:13:50.602Z,88.40
2019-03-09T03:16:20.218Z,89.70
2019-03-09T03:18:49.800Z,89.00
2019-03-09T03:21:19.410Z,89.70
2019-03-09T03:23:49.027Z,90.30
2019-03-09T03:26:18.610Z,90.10
2019-03-09T03:28:48.225Z,90.20
2019-03-09T03:31:17.811Z,90.30
2019-03-09T03:33:47.436Z,90.60
2019-03-09T03:36:17.160Z,90.90
2019-03-09T03:38:46.741Z,90.80
2019-03-09T03:41:16.354Z,90.90
2019-03-09T03:43:46.350Z,91.30
2019-03-09T03:46:16.041Z,91.40
2019-03-09T03:48:45.626Z,91.40
2019-03-09T03:51:15.222Z,91.50
2019-03-09T03:53:44.827Z,91.60
2019-03-09T03:56:14.416Z,91.70
2019-03-09T03:58:44.241Z,91.70
2019-03-09T04:01:13.930Z,91.30
2019-03-09T04:03:43.638Z,91.10
2019-03-09T04:06:13.623Z,91.20
2019-03-09T04:08:43.625Z,90.20
2019-03-09T04:11:13.352Z,90.20
2019-03-09T04:13:43.031Z,90.60
2019-03-09T04:16:12.643Z,90.60
2019-03-09T04:18:42.299Z,90.60
2019-03-09T04:21:11.881Z,90.50
2019-03-09T04:23:41.499Z,90.40
2019-03-09T04:26:11.160Z,91.00
2019-03-09T04:28:40.847Z,91.10
2019-03-09T04:31:10.504Z,91.20
2019-03-09T04:33:40.185Z,90.80
2019-03-09T04:36:09.771Z,90.90
2019-03-09T04:38:39.391Z,90.60
2019-03-09T04:41:08.974Z,89.70
2019-03-09T04:43:38.674Z,89.90
2019-03-09T04:46:08.274Z,90.00
2019-03-09T04:48:37.856Z,89.10
2019-03-09T04:51:07.468Z,88.50
2019-03-09T04:53:37.054Z,88.80
2019-03-09T04:56:06.676Z,88.80
2019-03-09T04:58:36.251Z,89.50
2019-03-09T05:01:05.863Z,89.60
2019-03-09T05:03:35.468Z,90.00
2019-03-09T05:06:05.218Z,89.00
2019-03-09T05:08:51.167Z,88.60
2019-03-09T05:11:21.082Z,88.60
2019-03-09T05:13:52.477Z,89.20
2019-03-09T05:16:22.093Z,89.50
2019-03-09T05:18:51.677Z,89.30
2019-03-09T05:21:21.296Z,89.10
2019-03-09T05:23:50.884Z,89.90
2019-03-09T05:26:20.500Z,89.50
2019-03-09T05:28:50.089Z,89.90
2019-03-09T05:31:19.682Z,90.10
2019-03-09T05:33:49.295Z,90.30
2019-03-09T05:36:18.880Z,90.50
2019-03-09T05:38:48.497Z,90.50
2019-03-09T05:41:18.084Z,90.80
2019-03-09T05:43:47.700Z,91.00
2019-03-09T05:46:17.286Z,90.80
2019-03-09T05:48:46.902Z,90.90
2019-03-09T05:51:16.488Z,90.80
2019-03-09T05:53:46.102Z,90.70
2019-03-09T05:56:15.709Z,90.70
2019-03-09T05:58:45.304Z,90.70
2019-03-09T06:01:14.914Z,91.10
2019-03-09T06:03:44.506Z,91.20
2019-03-09T06:06:14.187Z,90.90
2019-03-09T06:08:43.772Z,90.90
2019-03-09T06:11:13.394Z,90.90
2019-03-09T06:13:43.009Z,90.90
2019-03-09T06:16:12.616Z,91.00
2019-03-09T06:18:42.203Z,90.70
2019-03-09T06:21:11.885Z,90.60
2019-03-09T06:23:41.468Z,90.60
2019-03-09T06:26:11.076Z,90.60
2019-03-09T06:28:40.692Z,90.60
2019-03-09T06:31:10.280Z,90.60
2019-03-09T06:33:39.979Z,90.60
2019-03-09T06:36:20.042Z,90.20
2019-03-09T06:38:56.694Z,88.60
2019-03-09T06:41:49.073Z,87.20
2019-03-09T06:44:18.670Z,87.40
2019-03-09T06:46:50.018Z,87.70
2019-03-09T06:49:19.597Z,87.60
2019-03-09T06:51:49.186Z,86.60
2019-03-09T06:54:18.801Z,85.80
2019-03-09T06:56:48.416Z,85.40
2019-03-09T06:59:18.031Z,86.00
2019-03-09T07:01:47.718Z,85.80
2019-03-09T07:04:17.338Z,85.50
2019-03-09T07:06:46.954Z,85.30
2019-03-09T07:09:16.572Z,84.80
2019-03-09T07:11:46.160Z,84.10
2019-03-09T07:14:53.973Z,82.60
2019-03-09T07:17:23.630Z,81.90
2019-03-09T07:19:53.216Z,82.10
2019-03-09T07:22:22.830Z,81.30
2019-03-09T07:24:52.421Z,81.40
2019-03-09T07:27:22.048Z,81.80
2019-03-09T07:29:51.685Z,81.40
2019-03-09T07:32:21.294Z,81.20
2019-03-09T07:34:50.893Z,81.60
2019-03-09T07:37:20.487Z,82.00
2019-03-09T07:39:50.106Z,81.60
2019-03-09T07:42:19.701Z,82.70
2019-03-09T07:44:49.310Z,83.70
2019-03-09T07:47:18.898Z,83.80
2019-03-09T07:49:48.526Z,84.10
2019-03-09T07:52:36.087Z,84.90
2019-03-09T07:55:09.526Z,84.40
2019-03-09T07:57:39.260Z,83.40
2019-03-09T08:00:18.947Z,83.30
2019-03-09T08:02:48.952Z,83.50
2019-03-09T08:05:18.686Z,83.40
2019-03-09T08:07:48.310Z,84.10
2019-03-09T08:10:23.636Z,84.50
2019-03-09T08:12:53.483Z,84.00
2019-03-09T08:15:23.489Z,83.50
2019-03-09T08:17:53.232Z,83.40
2019-03-09T08:20:23.687Z,83.30
2019-03-09T08:22:53.328Z,82.70
2019-03-09T08:25:25.539Z,82.40
2019-03-09T08:27:55.152Z,82.80
2019-03-09T08:30:29.298Z,83.70
2019-03-09T08:32:58.992Z,83.40
2019-03-09T08:35:28.595Z,82.50
2019-03-09T08:37:58.297Z,81.90
2019-03-09T08:40:27.955Z,80.90
2019-03-09T08:42:57.577Z,80.10
2019-03-09T08:45:27.168Z,79.10
2019-03-09T08:47:56.820Z,79.20
2019-03-09T08:50:26.435Z,78.90
2019-03-09T08:52:55.999Z,78.60
2019-03-09T08:55:25.690Z,77.60
2019-03-09T08:57:55.365Z,77.40
2019-03-09T09:00:30.218Z,77.60
2019-03-09T09:03:00.129Z,77.60
2019-03-09T09:05:29.885Z,74.00
2019-03-09T09:07:59.549Z,75.90
2019-03-09T09:10:29.317Z,76.80
2019-03-09T09:12:58.908Z,77.00
2019-03-09T09:15:28.603Z,75.90
2019-03-09T09:17:58.196Z,75.20
2019-03-09T09:20:28.654Z,74.60
2019-03-09T09:22:58.281Z,71.80
2019-03-09T09:25:27.881Z,71.90
2019-03-09T09:27:57.564Z,71.00
2019-03-09T09:30:30.235Z,69.80
2019-03-09T09:32:59.862Z,71.00
2019-03-09T09:35:29.594Z,70.90
2019-03-09T09:37:59.288Z,70.60
2019-03-09T09:40:29.133Z,70.70
2019-03-09T09:42:58.791Z,68.80
2019-03-09T09:45:28.553Z,66.80
2019-03-09T09:47:58.144Z,68.60
2019-03-09T09:50:27.740Z,67.40
2019-03-09T09:52:57.366Z,67.70
2019-03-09T09:55:26.984Z,64.60
2019-03-09T09:57:56.594Z,64.90
2019-03-09T10:00:28.302Z,65.90
2019-03-09T10:02:57.992Z,67.80
2019-03-09T10:05:27.682Z,66.60
2019-03-09T10:07:57.275Z,66.70
2019-03-09T10:10:26.972Z,66.70
2019-03-09T10:12:56.566Z,67.90
2019-03-09T10:15:29.088Z,68.00
2019-03-09T10:17:58.712Z,67.70
2019-03-09T10:20:28.776Z,66.40
2019-03-09T10:23:04.098Z,67.10
2019-03-09T10:25:29.839Z,68.20
2019-03-09T10:27:59.438Z,68.20
2019-03-09T10:30:29.149Z,66.80
2019-03-09T10:32:58.784Z,65.00
2019-03-09T10:35:28.378Z,63.20
2019-03-09T10:37:57.970Z,60.80
2019-03-09T10:40:27.738Z,58.50
2019-03-09T10:42:57.333Z,58.10
2019-03-09T10:45:26.957Z,58.20
2019-03-09T10:47:56.631Z,57.90
2019-03-09T10:50:26.253Z,58.10
2019-03-09T10:52:55.879Z,58.30
2019-03-09T10:55:33.608Z,57.40
2019-03-09T10:58:03.419Z,57.70
2019-03-09T11:00:36.661Z,57.90
2019-03-09T11:03:06.349Z,56.00
2019-03-09T11:05:36.044Z,55.90
2019-03-09T11:08:06.039Z,53.70
2019-03-09T11:10:35.736Z,54.50
2019-03-09T11:13:05.536Z,54.40
2019-03-09T11:15:37.825Z,53.70
2019-03-09T11:18:07.584Z,53.80
2019-03-09T11:20:37.176Z,53.00
2019-03-09T11:23:06.807Z,52.60
2019-03-09T11:25:36.476Z,51.30
2019-03-09T11:28:15.317Z,49.00
2019-03-09T11:30:44.936Z,47.40
2019-03-09T11:33:14.563Z,46.40
2019-03-09T11:35:44.162Z,45.10
2019-03-09T11:38:13.824Z,45.10
2019-03-09T11:40:43.508Z,45.70
2019-03-09T11:43:13.143Z,46.90
2019-03-09T11:45:42.734Z,45.60
2019-03-09T11:48:12.397Z,44.50
2019-03-09T11:50:42.008Z,45.00
2019-03-09T11:53:11.604Z,44.00
2019-03-09T11:55:41.290Z,44.80
2019-03-09T11:58:10.921Z,45.10
2019-03-09T12:00:42.251Z,45.40
2019-03-09T12:03:11.921Z,45.00
2019-03-09T12:05:41.622Z,45.00
2019-03-09T12:08:11.220Z,45.20
2019-03-09T12:10:40.849Z,45.10
2019-03-09T12:13:10.471Z,45.50
2019-03-09T12:15:40.144Z,45.60
2019-03-09T12:18:09.775Z,45.30
2019-03-09T12:20:39.369Z,44.90
2019-03-09T12:23:21.654Z,45.10
2019-03-09T12:25:51.316Z,46.10
2019-03-09T12:28:20.946Z,46.20
2019-03-09T12:30:50.539Z,46.10
2019-03-09T12:33:20.210Z,46.30
2019-03-09T12:35:49.899Z,46.00
2019-03-09T12:38:19.560Z,46.30
2019-03-09T12:40:49.263Z,47.10
2019-03-09T12:43:18.889Z,47.20
2019-03-09T12:45:48.554Z,47.30
2019-03-09T12:48:18.184Z,47.20
2019-03-09T12:50:47.851Z,46.90
2019-03-09T12:53:17.552Z,46.80
2019-03-09T12:55:47.260Z,47.10
2019-03-09T12:58:17.083Z,47.30
2019-03-09T13:00:46.817Z,46.10
2019-03-09T13:03:16.511Z,46.00
2019-03-09T13:05:48.039Z,46.20
2019-03-09T13:08:17.709Z,46.50
2019-03-09T13:10:47.479Z,45.90
2019-03-09T13:13:17.211Z,45.80
2019-03-09T13:15:46.907Z,46.20
2019-03-09T13:18:16.534Z,46.00
2019-03-09T13:20:46.134Z,45.10
2019-03-09T13:23:15.764Z,45.10
2019-03-09T13:25:45.362Z,45.70
2019-03-09T13:28:14.951Z,45.90
2019-03-09T13:30:44.571Z,46.20
2019-03-09T13:33:14.310Z,46.20
2019-03-09T13:35:44.025Z,46.50
2019-03-09T13:38:13.688Z,46.40
2019-03-09T13:40:43.446Z,45.40
2019-03-09T13:43:13.047Z,46.00
2019-03-09T13:45:42.747Z,45.60
2019-03-09T13:48:12.344Z,46.10
2019-03-09T13:50:41.961Z,46.00
2019-03-09T13:53:11.649Z,46.60
2019-03-09T13:55:41.339Z,46.50
2019-03-09T13:58:11.044Z,47.00
2019-03-09T14:00:41.069Z,47.00
2019-03-09T14:03:10.625Z,46.80
2019-03-09T14:05:40.243Z,47.00
2019-03-09T14:08:09.918Z,46.60
2019-03-09T14:10:39.536Z,46.80
2019-03-09T14:13:09.137Z,47.50
2019-03-09T14:15:38.765Z,47.70
2019-03-09T14:18:08.393Z,47.50
2019-03-09T14:20:38.067Z,48.40
2019-03-09T14:23:07.689Z,48.10
2019-03-09T14:25:37.355Z,47.70
2019-03-09T14:28:07.051Z,47.00
2019-03-09T14:30:38.158Z,47.90
2019-03-09T14:33:07.858Z,47.80
2019-03-09T14:35:37.543Z,47.80
2019-03-09T14:38:07.169Z,47.90
2019-03-09T14:40:36.833Z,47.00
2019-03-09T14:43:06.481Z,47.20
2019-03-09T14:45:36.075Z,47.30
2019-03-09T14:48:05.812Z,47.30
2019-03-09T14:50:35.571Z,48.00
2019-03-09T14:53:05.406Z,47.80
2019-03-09T14:55:35.050Z,47.90
2019-03-09T14:58:04.680Z,47.40
2019-03-09T15:00:34.413Z,47.50
2019-03-09T15:03:04.015Z,48.00
2019-03-09T15:05:33.634Z,47.10
2019-03-09T15:08:03.258Z,47.80
2019-03-09T15:10:32.889Z,47.70
2019-03-09T15:13:02.670Z,47.40
2019-03-09T15:15:32.432Z,47.40
2019-03-09T15:18:02.124Z,47.30
2019-03-09T15:20:31.793Z,47.80
2019-03-09T15:23:01.407Z,48.30
2019-03-09T15:25:32.129Z,47.90
2019-03-09T15:28:01.789Z,47.50
2019-03-09T15:30:32.152Z,47.50
2019-03-09T15:33:01.823Z,47.40
2019-03-09T15:35:32.086Z,47.10
2019-03-09T15:38:03.391Z,46.80
2019-03-09T15:40:33.057Z,46.70
2019-03-09T15:43:02.682Z,46.60
2019-03-09T15:45:32.383Z,46.70
2019-03-09T15:48:02.000Z,46.60
2019-03-09T15:50:31.863Z,47.30
2019-03-09T15:53:01.622Z,47.80
2019-03-09T15:55:31.297Z,47.10
2019-03-09T15:58:00.991Z,47.00
2019-03-09T16:00:30.755Z,47.30
2019-03-09T16:03:00.381Z,46.80
2019-03-09T16:05:30.052Z,47.30
2019-03-09T16:07:59.810Z,46.90
2019-03-09T16:10:30.597Z,47.10
2019-03-09T16:13:00.223Z,47.50
2019-03-09T16:15:29.827Z,47.80
2019-03-09T16:17:59.448Z,47.80
2019-03-09T16:20:30.528Z,48.10
2019-03-09T16:23:00.199Z,49.00
2019-03-09T16:25:29.901Z,49.80
2019-03-09T16:27:59.637Z,52.50
2019-03-09T16:30:29.260Z,52.10
2019-03-09T16:32:58.885Z,51.50
2019-03-09T16:35:28.523Z,52.80
2019-03-09T16:37:58.111Z,53.30
2019-03-09T16:40:27.805Z,52.90
2019-03-09T16:42:57.569Z,55.50
2019-03-09T16:45:27.268Z,56.50
2019-03-09T16:47:56.865Z,55.10
2019-03-09T16:50:26.561Z,56.80
2019-03-09T16:52:56.162Z,57.90
2019-03-09T16:55:25.867Z,57.50
2019-03-09T16:57:55.447Z,58.80
2019-03-09T17:00:25.885Z,58.90
2019-03-09T17:02:55.551Z,59.10
2019-03-09T17:05:25.316Z,60.10
2019-03-09T17:07:54.979Z,63.40
2019-03-09T17:10:24.613Z,62.50
2019-03-09T17:12:54.281Z,64.80
2019-03-09T17:15:26.314Z,66.80
2019-03-09T17:17:56.020Z,69.50
2019-03-09T17:20:25.728Z,69.90
2019-03-09T17:22:55.319Z,70.50
2019-03-09T17:25:25.038Z,72.00
2019-03-09T17:27:54.705Z,72.60
2019-03-09T17:30:24.398Z,72.80
2019-03-09T17:32:54.194Z,73.40
2019-03-09T17:35:25.474Z,72.90
2019-03-09T17:37:55.094Z,74.00
2019-03-09T17:40:24.835Z,74.70
2019-03-09T17:42:54.462Z,73.90
2019-03-09T17:45:27.342Z,74.90
2019-03-09T17:47:57.033Z,75.00
2019-03-09T17:50:26.733Z,75.30
2019-03-09T17:52:56.390Z,75.20
2019-03-09T17:55:26.123Z,75.30
2019-03-09T17:57:55.810Z,75.90
2019-03-09T18:00:42.248Z,75.20
2019-03-09T18:03:03.609Z,75.80
2019-03-09T18:05:33.218Z,76.50
2019-03-09T18:08:02.842Z,77.30
2019-03-09T18:10:42.553Z,78.00
2019-03-09T18:13:12.187Z,77.40
2019-03-09T18:15:41.856Z,78.80
2019-03-09T18:18:11.502Z,78.50
2019-03-09T18:20:41.102Z,79.40
2019-03-09T18:23:10.724Z,79.80
2019-03-09T18:25:40.355Z,79.90
2019-03-09T18:28:09.959Z,79.40
2019-03-09T18:30:39.562Z,79.70
2019-03-09T18:33:09.167Z,81.00
2019-03-09T18:35:38.794Z,81.00
2019-03-09T18:38:08.375Z,81.20
2019-03-09T18:40:37.979Z,81.30
2019-03-09T18:43:07.597Z,81.00
2019-03-09T18:45:37.214Z,80.50
2019-03-09T18:48:06.843Z,79.90
2019-03-09T18:50:36.459Z,80.30
2019-03-09T18:53:08.032Z,80.90
2019-03-09T18:55:37.468Z,81.20
2019-03-09T18:58:07.055Z,80.50
2019-03-09T19:00:36.716Z,79.70
2019-03-09T19:03:06.472Z,79.90
2019-03-09T19:05:36.067Z,79.10
2019-03-09T19:08:05.754Z,79.70
2019-03-09T19:10:35.350Z,78.90
2019-03-09T19:13:05.106Z,78.80
2019-03-09T19:15:34.730Z,80.00
2019-03-09T19:18:04.398Z,80.00
2019-03-09T19:20:34.112Z,79.90
2019-03-09T19:23:03.776Z,80.10
2019-03-09T19:25:33.373Z,79.20
2019-03-09T19:28:02.998Z,78.30
2019-03-09T19:30:32.682Z,79.40
2019-03-09T19:33:02.301Z,79.10
2019-03-09T19:35:31.893Z,78.60
2019-03-09T19:38:01.523Z,78.20
2019-03-09T19:40:31.145Z,77.70
2019-03-09T19:43:00.779Z,78.30
2019-03-09T19:45:30.407Z,77.50
2019-03-09T19:48:00.029Z,78.50
2019-03-09T19:50:29.770Z,80.00
2019-03-09T19:52:59.449Z,80.70
2019-03-09T19:55:29.099Z,81.50
2019-03-09T19:57:58.721Z,82.30
2019-03-09T20:00:28.384Z,82.80
2019-03-09T20:02:58.008Z,83.80
2019-03-09T20:05:27.627Z,84.80
2019-03-09T20:07:57.237Z,86.00
2019-03-09T20:10:27.102Z,87.50
2019-03-09T20:12:56.698Z,88.70
2019-03-09T20:15:27.189Z,89.90
2019-03-09T20:17:56.785Z,90.10
2019-03-09T20:20:26.404Z,90.20
2019-03-09T20:22:56.011Z,90.20
2019-03-09T20:25:25.649Z,90.50
2019-03-09T20:27:55.240Z,90.90
2019-03-09T20:30:25.068Z,91.30
2019-03-09T20:32:54.756Z,91.60
2019-03-09T20:35:24.378Z,92.00
2019-03-09T20:37:56.258Z,92.00
2019-03-09T20:40:25.328Z,91.80
2019-03-09T20:42:54.914Z,91.60
2019-03-09T20:45:24.877Z,91.70
2019-03-09T20:47:54.538Z,91.80
2019-03-09T20:50:25.049Z,91.70
2019-03-09T20:52:54.672Z,91.70
2019-03-09T20:55:24.292Z,91.50
2019-03-09T20:57:53.948Z,91.30
2019-03-09T21:00:24.500Z,90.50
2019-03-09T21:02:54.090Z,88.80
2019-03-09T21:05:23.734Z,87.70
2019-03-09T21:07:53.299Z,87.50
2019-03-09T21:10:22.979Z,89.40
2019-03-09T21:13:08.418Z,88.60
2019-03-09T21:15:38.087Z,90.00
2019-03-09T21:18:07.819Z,91.30
2019-03-09T21:20:37.503Z,91.10
2019-03-09T21:23:07.092Z,92.00
2019-03-09T21:25:36.703Z,92.20
2019-03-09T21:28:06.349Z,91.90
2019-03-09T21:30:36.071Z,88.60
2019-03-09T21:33:05.666Z,88.90
2019-03-09T21:35:35.289Z,90.20
2019-03-09T21:38:04.898Z,89.90
2019-03-09T21:40:34.517Z,90.90
2019-03-09T21:43:04.186Z,89.10
2019-03-09T21:45:33.995Z,89.80
2019-03-09T21:48:03.648Z,90.70
2019-03-09T21:50:33.242Z,90.90
2019-03-09T21:53:02.861Z,90.50
2019-03-09T21:55:32.476Z,90.70
2019-03-09T21:58:02.061Z,90.90
2019-03-09T22:00:31.754Z,90.80
2019-03-09T22:03:01.375Z,91.30
2019-03-09T22:05:30.991Z,90.70
2019-03-09T22:08:00.581Z,90.50
2019-03-09T22:10:30.205Z,90.20
2019-03-09T22:12:59.796Z,90.30
2019-03-09T22:15:29.430Z,90.20
2019-03-09T22:17:59.018Z,90.60
2019-03-09T22:20:28.611Z,90.30
2019-03-09T22:22:58.230Z,91.00
2019-03-09T22:25:27.816Z,90.60
2019-03-09T22:27:57.426Z,91.20
2019-03-09T22:30:27.024Z,92.00
2019-03-09T22:32:56.643Z,92.00
2019-03-09T22:35:26.239Z,91.90
2019-03-09T22:37:55.851Z,91.30
2019-03-09T22:40:25.442Z,91.20
2019-03-09T22:42:55.059Z,90.80
2019-03-09T22:45:24.666Z,91.70
2019-03-09T22:47:54.287Z,91.20
2019-03-09T22:50:27.953Z,91.80
2019-03-09T22:52:57.573Z,91.20
2019-03-09T22:55:27.169Z,91.80
2019-03-09T22:57:56.791Z,91.90
2019-03-09T23:00:27.893Z,90.70
2019-03-09T23:02:57.616Z,91.10
2019-03-09T23:05:27.379Z,91.90
2019-03-09T23:07:57.055Z,92.50
2019-03-09T23:10:28.813Z,91.20
2019-03-09T23:12:58.398Z,91.20
2019-03-09T23:15:28.053Z,91.80
2019-03-09T23:17:57.676Z,91.10
2019-03-09T23:20:27.291Z,92.00
2019-03-09T23:22:56.874Z,92.00
2019-03-09T23:25:26.632Z,91.50
2019-03-09T23:27:56.219Z,90.90
2019-03-09T23:30:26.039Z,91.80
2019-03-09T23:32:55.694Z,92.10
2019-03-09T23:35:25.302Z,91.50
2019-03-09T23:37:54.997Z,90.70
2019-03-09T23:40:25.223Z,90.50
2019-03-09T23:42:54.840Z,92.20
2019-03-09T23:45:29.136Z,92.40
2019-03-09T23:47:58.845Z,92.00
2019-03-09T23:50:28.599Z,92.20
2019-03-09T23:52:58.332Z,92.20
2019-03-09T23:55:28.390Z,92.50
2019-03-09T23:57:58.125Z,92.50
